Time;durP1;ratioP1;P1;durP2;ratioP2;P2;SDS_P1;SDS_P2;PMS_P1;PMS_P2;Temp;Humidity;BMP_temperature;BMP_pressure;BME280_temperature;BME280_humidity;BME280_pressure;Samples;Min_cycle;Max_cycle;Signal;HPM_P1;HPM_P2
2022/05/26 00:00:03;;;;;;;3.17;2.20;;;;;;;10.69;84.33;96535.19;2024404;29;20052;-61
2022/05/26 00:01:06;;;;;;;3.50;2.38;;;;;;;10.66;84.21;96531.84;2039711;28;20058;-61
2022/05/26 00:02:07;;;;;;;4.90;2.40;;;;;;;10.66;84.87;96531.84;2055559;28;20058;-61
2022/05/26 00:03:08;;;;;;;4.53;2.55;;;;;;;10.60;84.89;96530.34;2055095;28;20050;-61
2022/05/26 00:04:10;;;;;;;2.70;1.90;;;;;;;10.57;84.64;96526.13;2056122;28;20055;-61
2022/05/26 00:05:11;;;;;;;3.13;2.35;;;;;;;10.54;85.00;96528.84;2056279;28;20521;-61
2022/05/26 00:06:13;;;;;;;4.82;2.30;;;;;;;10.52;85.29;96533.25;2064527;28;20057;-60
2022/05/26 00:07:14;;;;;;;3.40;2.40;;;;;;;10.47;85.54;96527.38;2052904;28;20047;-61
2022/05/26 00:08:15;;;;;;;4.68;2.28;;;;;;;10.42;85.44;96521.50;2055241;28;20050;-61
2022/05/26 00:09:16;;;;;;;4.72;2.40;;;;;;;10.43;85.55;96524.97;2056279;28;20102;-60
2022/05/26 00:10:17;;;;;;;6.03;2.30;;;;;;;10.47;85.95;96521.34;2047911;29;20051;-61
2022/05/26 00:11:22;;;;;;;4.57;2.15;;;;;;;10.44;85.11;96524.91;2048522;28;20055;-61
2022/05/26 00:12:23;;;;;;;5.60;2.28;;;;;;;10.48;85.82;96525.66;2048431;28;20054;-61
2022/05/26 00:13:25;;;;;;;3.95;2.60;;;;;;;10.44;85.93;96524.06;2056351;28;20176;-62
2022/05/26 00:14:26;;;;;;;5.25;2.25;;;;;;;10.43;85.65;96519.78;2055528;28;20097;-61
2022/05/26 00:15:27;;;;;;;3.95;2.28;;;;;;;10.38;86.06;96525.13;2055985;28;20043;-61
2022/05/26 00:16:28;;;;;;;5.03;2.50;;;;;;;10.40;85.85;96522.47;2039639;29;20047;-61
2022/05/26 00:17:29;;;;;;;5.78;2.60;;;;;;;10.37;86.21;96524.31;2048132;29;20047;-62
2022/05/26 00:18:30;;;;;;;3.55;2.33;;;;;;;10.34;86.39;96519.22;2056046;28;20058;-60
2022/05/26 00:19:32;;;;;;;5.68;2.47;;;;;;;10.34;86.48;96528.75;2063894;28;20046;-61
2022/05/26 00:20:33;;;;;;;4.85;2.78;;;;;;;10.30;85.82;96522.81;2063914;28;20054;-63
2022/05/26 00:21:34;;;;;;;4.47;2.40;;;;;;;10.26;85.80;96522.97;2048387;28;20051;-61
2022/05/26 00:22:36;;;;;;;8.13;2.40;;;;;;;10.21;85.96;96525.75;2048201;28;20047;-61
2022/05/26 00:23:37;;;;;;;4.55;2.47;;;;;;;10.17;85.90;96526.75;2047694;28;20560;-60
2022/05/26 00:24:38;;;;;;;3.97;2.55;;;;;;;10.17;86.36;96526.75;2047461;28;20734;-60
2022/05/26 00:25:39;;;;;;;5.72;2.50;;;;;;;10.11;87.06;96527.81;2032373;29;20044;-61
2022/05/26 00:26:40;;;;;;;4.68;2.50;;;;;;;10.11;86.99;96524.41;2031814;28;20052;-61
2022/05/26 00:27:42;;;;;;;3.63;2.63;;;;;;;10.07;86.81;96525.41;2056085;28;20042;-61
2022/05/26 00:28:43;;;;;;;5.57;2.88;;;;;;;10.06;87.32;96523.72;2047994;29;20039;-62
2022/05/26 00:29:44;;;;;;;7.00;2.25;;;;;;;10.06;86.52;96529.75;2045289;29;20087;-61
2022/05/26 00:30:46;;;;;;;5.18;2.55;;;;;;;10.08;86.68;96524.50;2045290;29;20043;-61
2022/05/26 00:31:47;;;;;;;3.05;2.20;;;;;;;9.99;86.21;96525.66;2039591;29;20052;-61
2022/05/26 00:32:48;;;;;;;8.70;2.45;;;;;;;9.98;86.64;96528.34;2054927;28;20043;-61
2022/05/26 00:33:49;;;;;;;4.70;2.25;;;;;;;10.01;87.40;96530.81;2054924;28;20059;-62
2022/05/26 00:34:51;;;;;;;4.18;2.50;;;;;;;10.01;86.81;96523.88;2046677;28;20047;-61
2022/05/26 00:35:52;;;;;;;3.22;2.33;;;;;;;9.97;87.23;96521.44;2046769;28;20055;-61
2022/05/26 00:36:53;;;;;;;4.32;2.30;;;;;;;9.95;86.80;96529.28;2047354;28;20094;-60
2022/05/26 00:37:55;;;;;;;5.65;3.00;;;;;;;9.88;86.91;96527.81;2047846;28;20051;-61
2022/05/26 00:38:56;;;;;;;3.95;2.78;;;;;;;9.92;86.85;96530.25;2055950;28;20050;-60
2022/05/26 00:39:57;;;;;;;4.88;2.75;;;;;;;9.87;87.61;96524.38;2056099;28;20074;-60
2022/05/26 00:41:03;;;;;;;7.45;2.80;;;;;;;9.66;87.03;96494.03;2055467;28;20473;-60
2022/05/26 00:42:05;;;;;;;4.70;2.83;;;;;;;9.84;87.76;96524.50;2056277;28;20050;-61
2022/05/26 00:43:07;;;;;;;5.60;3.00;;;;;;;9.81;87.72;96521.16;2055962;28;20543;-60
2022/05/26 00:44:08;;;;;;;4.70;2.65;;;;;;;9.74;87.44;96517.09;2063996;28;20148;-61
2022/05/26 00:45:09;;;;;;;3.90;2.70;;;;;;;9.75;87.79;96526.56;2063521;28;20042;-61
2022/05/26 00:46:19;;;;;;;4.05;2.85;;;;;;;9.67;87.97;96524.22;2055605;28;20052;-62
2022/05/26 00:47:21;;;;;;;6.50;2.78;;;;;;;9.71;88.07;96528.44;2048978;28;20047;-61
2022/05/26 00:48:24;;;;;;;4.63;2.60;;;;;;;9.74;88.33;96520.53;2048175;28;20054;-61
2022/05/26 00:49:35;;;;;;;5.72;3.15;;;;;;;9.66;87.81;96515.63;2048587;28;20092;-61
2022/05/26 00:50:46;;;;;;;5.07;2.80;;;;;;;9.72;88.25;96524.91;2050950;28;20106;-60
2022/05/26 00:51:47;;;;;;;4.88;2.78;;;;;;;9.66;87.86;96531.16;2055749;28;20051;-61
2022/05/26 00:52:54;;;;;;;7.95;2.65;;;;;;;9.66;88.29;96527.75;2032679;29;20509;-62
2022/05/26 00:53:57;;;;;;;6.85;2.83;;;;;;;9.65;87.88;96528.63;2042274;28;20063;-60
2022/05/26 00:55:03;;;;;;;5.53;2.70;;;;;;;9.64;87.75;96529.53;2055669;28;20058;-59
2022/05/26 00:56:10;;;;;;;6.07;2.88;;;;;;;9.64;87.84;96526.94;2040726;28;20051;-61
2022/05/26 00:57:19;;;;;;;4.75;2.40;;;;;;;9.64;88.04;96519.16;2042521;28;20048;-62
2022/05/26 00:58:23;;;;;;;8.00;2.92;;;;;;;9.58;87.56;96520.22;2060147;28;20053;-61
2022/05/26 00:59:53;;;;;;;3.05;2.15;;;;;;;9.61;87.93;96520.09;2064145;28;20054;-62
2022/05/26 01:00:56;;;;;;;4.63;2.65;;;;;;;9.62;88.31;96523.53;2063728;28;20057;-62
2022/05/26 01:01:58;;;;;;;3.97;2.80;;;;;;;9.58;88.00;96511.59;2047884;28;20520;-61
2022/05/26 01:03:03;;;;;;;5.32;3.15;;;;;;;9.57;88.23;96520.25;2041525;28;20152;-61
2022/05/26 01:04:07;;;;;;;3.35;2.67;;;;;;;9.59;87.88;96515.88;2056922;28;20050;-61
2022/05/26 01:05:18;;;;;;;6.35;3.60;;;;;;;9.65;88.35;96523.44;2041183;29;20418;-61
2022/05/26 01:06:22;;;;;;;5.20;2.90;;;;;;;9.62;88.28;96519.22;2033386;28;20071;-61
2022/05/26 01:07:26;;;;;;;7.78;2.85;;;;;;;9.58;87.64;96522.81;2050297;28;20047;-61
2022/05/26 01:08:32;;;;;;;4.47;2.90;;;;;;;9.47;88.14;96514.56;2050218;28;20047;-62
2022/05/26 01:09:33;;;;;;;4.55;2.88;;;;;;;9.48;88.23;96529.22;2035721;28;20426;-61
2022/05/26 01:10:35;;;;;;;5.47;2.88;;;;;;;9.43;87.72;96531.13;2049572;28;20065;-61
2022/05/26 01:11:37;;;;;;;6.18;3.25;;;;;;;9.41;88.37;96540.69;2057453;28;20047;-61
2022/05/26 01:12:38;;;;;;;6.40;3.10;;;;;;;9.46;87.95;96536.19;2041603;29;20569;-60
2022/05/26 01:13:43;;;;;;;5.00;3.30;;;;;;;9.42;88.29;96522.50;2034041;29;20056;-60
2022/05/26 01:14:49;;;;;;;7.90;3.28;;;;;;;9.39;87.80;96537.31;2041397;28;20052;-60
2022/05/26 01:16:10;;;;;;;8.40;3.22;;;;;;;9.38;87.81;96520.06;2042465;28;20055;-61
2022/05/26 01:17:17;;;;;;;5.10;3.03;;;;;;;9.35;88.25;96526.19;2039207;29;20043;-61
2022/05/26 01:18:23;;;;;;;6.50;3.20;;;;;;;9.35;88.04;96526.19;2046046;28;20051;-61
2022/05/26 01:19:52;;;;;;;6.38;3.22;;;;;;;9.35;87.90;96527.94;2042563;29;20054;-61
2022/05/26 01:21:08;;;;;;;6.10;3.22;;;;;;;9.33;88.15;96537.50;2052641;28;20065;-62
2022/05/26 01:22:36;;;;;;;4.28;2.90;;;;;;;9.29;87.89;96531.59;2037446;29;20044;-60
2022/05/26 01:24:00;;;;;;;4.35;3.08;;;;;;;9.24;88.07;96531.72;2049198;28;20050;-60
2022/05/26 01:25:03;;;;;;;5.43;3.53;;;;;;;9.23;88.54;96529.22;2056700;28;20043;-61
2022/05/26 01:26:36;;;;;;;7.53;3.50;;;;;;;9.23;88.11;96531.81;2056840;28;20035;-60
2022/05/26 01:27:38;;;;;;;6.13;2.90;;;;;;;9.24;88.52;96526.53;2065284;28;20050;-61
2022/05/26 01:29:16;;;;;;;6.72;3.30;;;;;;;9.18;88.28;96529.34;2064609;28;20061;-61
2022/05/26 01:30:38;;;;;;;7.13;2.70;;;;;;;9.16;88.29;96533.72;2061929;28;20030;-62
2022/05/26 01:31:51;;;;;;;5.57;2.60;;;;;;;9.21;88.50;96534.44;2065225;28;20053;-61
2022/05/26 01:33:00;;;;;;;3.67;2.78;;;;;;;9.17;87.82;96537.19;2051265;28;20126;-61
2022/05/26 01:34:10;;;;;;;4.57;3.03;;;;;;;9.17;88.35;96538.03;2057786;28;20046;-60
2022/05/26 01:35:17;;;;;;;5.40;2.85;;;;;;;9.21;87.93;96541.38;2064004;28;20046;-60
2022/05/26 01:36:26;;;;;;;8.15;3.58;;;;;;;9.23;88.11;96539.56;2048976;28;20043;-62
2022/05/26 01:37:39;;;;;;;5.07;2.95;;;;;;;9.26;87.36;96539.47;2041747;29;20055;-60
2022/05/26 01:39:03;;;;;;;5.03;2.70;;;;;;;9.30;87.02;96546.22;2045977;28;20085;-60
2022/05/26 01:40:19;;;;;;;4.70;3.03;;;;;;;9.09;87.38;96534.84;2059228;28;20046;-60
2022/05/26 01:41:48;;;;;;;6.28;3.10;;;;;;;9.19;86.74;96550.91;2045815;28;20047;-60
2022/05/26 01:43:15;;;;;;;5.93;2.95;;;;;;;9.24;86.82;96551.63;2060875;28;20046;-61
2022/05/26 01:44:41;;;;;;;5.90;2.97;;;;;;;9.17;87.24;96550.16;2063429;28;20038;-59
2022/05/26 01:46:07;;;;;;;5.32;2.95;;;;;;;9.21;87.06;96543.94;2064558;28;20047;-60
2022/05/26 01:47:14;;;;;;;4.80;2.85;;;;;;;9.22;86.85;96550.81;2057015;28;20585;-61
2022/05/26 01:48:23;;;;;;;4.75;2.90;;;;;;;9.19;87.08;96545.75;2050632;28;20047;-61
2022/05/26 01:49:30;;;;;;;7.75;3.13;;;;;;;9.17;86.51;96544.97;2057791;28;20505;-61
2022/05/26 01:50:38;;;;;;;4.80;2.85;;;;;;;9.15;87.08;96554.53;2064444;28;20532;-60
2022/05/26 01:51:43;;;;;;;5.30;2.92;;;;;;;9.14;87.31;96545.03;2049864;28;20066;-61
2022/05/26 01:52:52;;;;;;;7.03;3.05;;;;;;;9.10;87.01;96551.25;2057713;28;20050;-61
2022/05/26 01:54:01;;;;;;;6.05;3.00;;;;;;;9.07;87.51;96551.34;2050009;28;20043;-60
2022/05/26 01:55:24;;;;;;;4.85;3.13;;;;;;;9.09;87.02;96546.94;2043718;28;20062;-61
2022/05/26 01:56:36;;;;;;;5.43;2.85;;;;;;;9.05;87.30;96547.03;2053887;28;20132;-60
2022/05/26 01:57:56;;;;;;;4.57;2.92;;;;;;;9.01;87.43;96544.63;2058527;28;20055;-61
2022/05/26 01:59:06;;;;;;;6.35;3.30;;;;;;;9.01;87.51;96544.63;2059529;28;20069;-62
2022/05/26 02:00:09;;;;;;;9.00;3.05;;;;;;;8.99;88.21;96538.63;2050278;28;20043;-61
2022/05/26 02:01:13;;;;;;;6.32;3.05;;;;;;;9.00;87.46;96540.31;2041344;28;20122;-60
2022/05/26 02:02:18;;;;;;;5.15;3.20;;;;;;;9.02;87.93;96539.38;2040500;28;20047;-59
2022/05/26 02:03:22;;;;;;;9.45;3.33;;;;;;;9.02;87.84;96544.56;2032232;29;20062;-62
2022/05/26 02:04:26;;;;;;;6.55;3.30;;;;;;;8.95;88.01;96537.88;2041855;28;20047;-59
2022/05/26 02:05:29;;;;;;;8.77;3.45;;;;;;;8.92;87.96;96537.13;2055856;28;20050;-60
2022/05/26 02:06:32;;;;;;;6.32;3.60;;;;;;;8.88;88.07;96543.31;2048679;28;20461;-59
2022/05/26 02:07:37;;;;;;;8.73;3.50;;;;;;;8.85;88.21;96549.44;2049319;28;20051;-60
2022/05/26 02:08:42;;;;;;;5.68;3.47;;;;;;;8.85;88.60;96549.44;2040606;29;20051;-59
2022/05/26 02:09:43;;;;;;;8.60;4.25;;;;;;;8.82;88.14;96549.50;2040648;28;20055;-61
2022/05/26 02:10:47;;;;;;;5.38;3.10;;;;;;;9.03;88.59;96545.38;2048860;28;20075;-61
2022/05/26 02:12:01;;;;;;;6.68;3.20;;;;;;;8.99;88.06;96549.84;2057482;28;20042;-61
2022/05/26 02:13:05;;;;;;;4.38;3.17;;;;;;;8.94;87.60;96545.69;2049165;28;20529;-61
2022/05/26 02:14:12;;;;;;;7.18;3.50;;;;;;;9.00;87.99;96548.94;2043530;28;20051;-60
2022/05/26 02:15:18;;;;;;;5.20;2.85;;;;;;;8.93;87.55;96550.03;2055959;28;20047;-61
2022/05/26 02:16:55;;;;;;;7.20;3.88;;;;;;;8.92;87.64;96548.31;2057697;28;20062;-60
2022/05/26 02:18:02;;;;;;;10.98;3.30;;;;;;;8.91;88.26;96554.41;2048511;29;20114;-61
2022/05/26 02:19:11;;;;;;;7.78;3.35;;;;;;;8.86;88.28;96545.94;2035463;28;20522;-60
2022/05/26 02:20:15;;;;;;;6.15;3.70;;;;;;;8.89;88.61;96548.44;2050537;28;20510;-61
2022/05/26 02:21:19;;;;;;;4.50;3.10;;;;;;;8.96;88.19;96549.09;2049008;28;20058;-62
2022/05/26 02:22:23;;;;;;;6.00;3.10;;;;;;;9.00;87.87;96545.50;2056731;28;20046;-61
2022/05/26 02:23:31;;;;;;;7.32;3.60;;;;;;;8.97;88.04;96545.59;2048979;28;20055;-62
2022/05/26 02:24:36;;;;;;;4.28;3.15;;;;;;;8.93;87.95;96550.03;2049317;28;20513;-63
2022/05/26 02:25:37;;;;;;;6.53;3.60;;;;;;;8.89;88.23;96545.84;2049832;28;20066;-61
2022/05/26 02:26:38;;;;;;;5.18;3.17;;;;;;;8.81;88.10;96545.22;2056403;28;20047;-62
2022/05/26 02:27:39;;;;;;;5.07;3.53;;;;;;;8.80;88.08;96543.56;2048600;29;20066;-61
2022/05/26 02:30:03;;;;;;;4.40;3.05;;;;;;;8.76;88.36;96544.53;2050960;28;20053;-60
2022/05/26 02:31:04;;;;;;;6.95;3.33;;;;;;;8.81;88.95;96550.41;2048128;29;20051;-64
2022/05/26 02:32:06;;;;;;;7.05;3.78;;;;;;;8.81;88.94;96553.00;2040657;29;20052;-62
2022/05/26 02:33:09;;;;;;;7.05;4.40;;;;;;;8.78;88.50;96550.50;2048563;28;20498;-62
2022/05/26 02:34:11;;;;;;;6.55;3.72;;;;;;;8.75;88.53;96550.63;2056668;28;20428;-63
2022/05/26 02:35:18;;;;;;;6.07;3.80;;;;;;;8.70;89.21;96547.31;2040603;29;20047;-61
2022/05/26 02:36:19;;;;;;;5.80;3.67;;;;;;;8.69;89.16;96546.47;2035299;28;20541;-62
2022/05/26 02:37:21;;;;;;;5.50;3.55;;;;;;;8.82;88.95;96555.56;2048532;28;20594;-62
2022/05/26 02:38:23;;;;;;;6.32;4.28;;;;;;;8.79;88.89;96547.03;2040940;28;20134;-62
2022/05/26 02:39:24;;;;;;;7.53;4.30;;;;;;;8.87;88.81;96554.56;2041449;28;20076;-62
2022/05/26 02:40:25;;;;;;;7.35;4.03;;;;;;;8.90;89.14;96550.16;2047153;28;20513;-62
2022/05/26 02:41:26;;;;;;;6.10;4.20;;;;;;;8.90;88.80;96552.72;2056377;28;20428;-63
2022/05/26 02:42:27;;;;;;;9.07;4.82;;;;;;;8.86;89.01;96545.09;2047258;29;20062;-61
2022/05/26 02:43:29;;;;;;;8.38;4.43;;;;;;;8.84;88.46;96550.31;2035123;29;20058;-62
2022/05/26 02:44:30;;;;;;;5.88;4.28;;;;;;;8.81;88.92;96546.06;2055647;28;20053;-60
2022/05/26 02:45:43;;;;;;;8.57;4.55;;;;;;;8.76;89.09;96541.94;2038909;29;20062;-62
2022/05/26 02:47:24;;;;;;;8.20;3.92;;;;;;;8.71;89.30;96551.59;2044200;28;20047;-63
2022/05/26 02:48:43;;;;;;;8.27;4.38;;;;;;;8.65;89.54;96559.56;2045681;29;20101;-63
2022/05/26 02:49:50;;;;;;;9.00;4.85;;;;;;;8.64;89.89;96557.88;2058880;28;20055;-60
2022/05/26 02:51:12;;;;;;;11.25;4.95;;;;;;;8.59;89.80;96551.06;2056278;28;20071;-62
2022/05/26 02:52:38;;;;;;;5.93;4.43;;;;;;;8.57;89.92;96552.03;2038801;28;20561;-61
2022/05/26 02:53:45;;;;;;;5.57;4.20;;;;;;;8.53;89.42;96556.44;2051316;28;20109;-61
2022/05/26 02:55:06;;;;;;;9.23;4.28;;;;;;;8.54;89.96;96552.13;2064423;28;20046;-62
2022/05/26 02:56:15;;;;;;;6.78;4.35;;;;;;;8.51;90.11;96562.56;2056027;28;20524;-62
2022/05/26 02:57:35;;;;;;;7.00;4.70;;;;;;;8.50;90.50;96555.69;2050271;28;20047;-60
2022/05/26 02:58:59;;;;;;;6.90;4.90;;;;;;;8.46;90.26;96560.09;2059105;28;20038;-61
2022/05/26 03:00:09;;;;;;;8.35;4.68;;;;;;;8.49;90.31;96559.16;2064837;28;20496;-61
2022/05/26 03:01:12;;;;;;;12.00;4.38;;;;;;;8.57;90.05;96564.97;2063917;28;20042;-60
2022/05/26 03:02:20;;;;;;;6.38;4.70;;;;;;;8.55;90.28;96567.63;2048276;28;20043;-61
2022/05/26 03:03:27;;;;;;;6.57;4.63;;;;;;;8.59;90.25;96564.03;2049979;28;20043;-61
2022/05/26 03:04:35;;;;;;;7.57;4.97;;;;;;;8.55;89.97;96561.56;2049310;28;20070;-60
2022/05/26 03:05:55;;;;;;;7.05;5.20;;;;;;;8.46;90.32;96557.53;2049319;28;20127;-61
2022/05/26 03:06:57;;;;;;;7.18;4.72;;;;;;;8.57;90.04;96575.31;2053324;28;20073;-61
2022/05/26 03:07:59;;;;;;;7.43;4.90;;;;;;;8.57;90.64;96572.72;2061241;28;20058;-61
2022/05/26 03:09:00;;;;;;;6.70;5.25;;;;;;;8.62;90.59;96576.03;2048583;28;20058;-62
2022/05/26 03:10:04;;;;;;;8.40;5.03;;;;;;;8.65;90.44;96564.72;2056603;28;20043;-61
2022/05/26 03:11:08;;;;;;;10.43;5.80;;;;;;;8.67;90.11;96568.97;2056606;28;20110;-60
2022/05/26 03:12:30;;;;;;;8.02;4.78;;;;;;;8.68;90.31;96565.47;2048431;28;20043;-61
2022/05/26 03:13:32;;;;;;;6.65;4.93;;;;;;;8.68;90.03;96575.00;2053838;28;20054;-61
2022/05/26 03:14:33;;;;;;;7.55;5.03;;;;;;;8.71;89.91;96572.31;2056180;28;20051;-62
2022/05/26 03:15:35;;;;;;;8.00;5.03;;;;;;;8.73;90.03;96570.53;2048145;28;20086;-61
2022/05/26 03:16:37;;;;;;;11.32;5.35;;;;;;;8.72;89.96;96572.28;2040517;28;20047;-62
2022/05/26 03:17:38;;;;;;;6.82;4.68;;;;;;;8.81;89.49;96577.16;2056589;28;20054;-61
2022/05/26 03:18:39;;;;;;;8.25;5.07;;;;;;;8.82;89.58;96576.28;2056562;28;20539;-62
2022/05/26 03:19:40;;;;;;;6.60;5.18;;;;;;;8.84;89.14;96574.47;2048236;28;20517;-60
2022/05/26 03:20:42;;;;;;;8.55;5.30;;;;;;;8.99;88.84;96575.75;2048308;29;20050;-61
2022/05/26 03:21:43;;;;;;;7.88;4.90;;;;;;;9.02;88.81;96570.47;2048246;28;20564;-61
2022/05/26 03:22:44;;;;;;;10.60;5.28;;;;;;;9.04;88.58;96580.78;2056119;28;20061;-61
2022/05/26 03:23:45;;;;;;;7.95;5.50;;;;;;;9.03;88.57;96574.75;2056008;28;20050;-62
2022/05/26 03:24:46;;;;;;;9.60;5.65;;;;;;;9.04;88.73;96578.19;2048246;28;20409;-61
2022/05/26 03:25:48;;;;;;;8.27;5.40;;;;;;;9.01;89.02;96579.13;2047910;28;20417;-61
2022/05/26 03:26:49;;;;;;;10.85;5.35;;;;;;;8.99;88.49;96577.50;2032459;29;20040;-61
2022/05/26 03:27:50;;;;;;;7.88;4.93;;;;;;;8.99;88.70;96577.50;2046656;28;20449;-62
2022/05/26 03:28:51;;;;;;;7.38;5.05;;;;;;;8.99;88.92;96574.91;2048497;29;20051;-61
2022/05/26 03:29:54;;;;;;;8.75;5.35;;;;;;;8.93;88.56;96575.94;2051684;28;20058;-62
2022/05/26 03:30:55;;;;;;;7.93;5.68;;;;;;;8.89;88.91;96576.06;2046992;28;20099;-62
2022/05/26 03:31:56;;;;;;;6.43;5.18;;;;;;;8.92;88.41;96576.81;2040036;29;20051;-61
2022/05/26 03:32:57;;;;;;;9.88;5.78;;;;;;;8.87;88.74;96576.13;2056498;28;20440;-61
2022/05/26 03:41:59;;;;;;;8.55;6.03;;;;;;;8.80;88.87;96579.81;2052109;28;20070;-60
2022/05/26 03:43:00;;;;;;;9.07;5.28;;;;;;;8.79;88.75;96589.31;2057996;28;20093;-61
2022/05/26 03:44:01;;;;;;;8.20;5.35;;;;;;;8.79;88.94;96588.44;2064059;28;20053;-61
2022/05/26 03:45:03;;;;;;;9.73;5.20;;;;;;;8.77;88.98;96590.25;2047305;29;20055;-62
2022/05/26 03:46:04;;;;;;;9.05;5.78;;;;;;;8.71;89.20;96587.84;2047631;28;20047;-61
2022/05/26 03:47:06;;;;;;;8.95;5.65;;;;;;;8.76;89.03;96594.56;2063187;28;20057;-61
2022/05/26 03:48:07;;;;;;;8.23;5.50;;;;;;;8.77;88.89;96592.84;2054112;28;20047;-61
2022/05/26 03:49:08;;;;;;;7.07;5.47;;;;;;;8.83;89.18;96597.84;2048281;29;20069;-61
2022/05/26 03:50:10;;;;;;;9.15;5.20;;;;;;;8.97;88.72;96603.44;2048414;28;20042;-61
2022/05/26 03:51:11;;;;;;;9.52;5.15;;;;;;;9.04;88.52;96604.09;2056427;28;20050;-61
2022/05/26 03:52:13;;;;;;;9.18;5.80;;;;;;;9.06;87.95;96602.28;2047942;29;20055;-61
2022/05/26 03:53:14;;;;;;;8.30;5.13;;;;;;;9.16;87.44;96600.25;2039941;29;20427;-61
2022/05/26 03:54:15;;;;;;;7.68;5.50;;;;;;;9.21;87.19;96596.63;2040344;28;20047;-61
2022/05/26 03:55:16;;;;;;;6.68;5.22;;;;;;;9.25;86.94;96605.16;2055884;28;20051;-61
2022/05/26 03:56:17;;;;;;;7.60;5.22;;;;;;;9.24;86.64;96606.88;2047980;28;20058;-61
2022/05/26 03:57:23;;;;;;;7.32;4.78;;;;;;;9.33;86.45;96594.53;2048414;28;20055;-62
2022/05/26 03:58:24;;;;;;;5.32;4.30;;;;;;;9.41;86.34;96608.94;2044002;28;20047;-61
2022/05/26 03:59:25;;;;;;;7.72;5.28;;;;;;;9.48;85.30;96607.00;2048143;29;20119;-62
2022/05/26 04:00:26;;;;;;;6.93;4.53;;;;;;;9.52;85.42;96606.00;2055932;28;20544;-62
2022/05/26 04:01:28;;;;;;;10.95;4.65;;;;;;;9.44;85.04;96608.00;2048326;28;20421;-61
2022/05/26 04:02:29;;;;;;;7.68;4.70;;;;;;;9.38;85.64;96610.78;2055590;28;20414;-63
2022/05/26 04:03:30;;;;;;;7.45;4.22;;;;;;;9.46;85.67;96609.66;2064713;28;20501;-61
2022/05/26 04:04:31;;;;;;;8.45;5.13;;;;;;;9.44;85.44;96611.44;2054312;28;20439;-62
2022/05/26 04:05:32;;;;;;;10.27;4.68;;;;;;;9.46;84.98;96609.66;2039894;28;20058;-61
2022/05/26 04:06:33;;;;;;;9.00;4.70;;;;;;;9.47;85.01;96608.75;2049651;28;20051;-61
2022/05/26 04:07:35;;;;;;;8.55;4.70;;;;;;;9.50;85.60;96611.22;2066493;28;20050;-62
2022/05/26 04:08:36;;;;;;;7.32;4.40;;;;;;;9.60;85.55;96609.19;2064118;28;20524;-62
2022/05/26 04:09:37;;;;;;;6.80;4.57;;;;;;;9.69;84.53;96611.44;2047928;29;20051;-61
2022/05/26 04:10:38;;;;;;;7.00;4.10;;;;;;;9.65;84.69;96609.00;2047814;28;20425;-62
2022/05/26 04:11:40;;;;;;;7.38;4.78;;;;;;;9.60;84.44;96618.72;2064240;28;20050;-61
2022/05/26 04:12:42;;;;;;;7.78;4.10;;;;;;;9.61;84.31;96613.47;2047610;29;20469;-61
2022/05/26 04:13:43;;;;;;;8.18;4.68;;;;;;;9.66;84.87;96618.50;2040746;29;20047;-61
2022/05/26 04:14:45;;;;;;;8.10;4.75;;;;;;;9.61;84.49;96616.06;2048335;28;20074;-61
2022/05/26 04:15:46;;;;;;;7.20;4.40;;;;;;;9.77;84.72;96618.97;2064125;28;20062;-62
2022/05/26 04:16:47;;;;;;;8.73;4.55;;;;;;;9.84;83.84;96628.25;2063246;28;20042;-61
2022/05/26 04:17:48;;;;;;;6.72;3.83;;;;;;;9.82;84.51;96619.69;2047119;29;20458;-62
2022/05/26 04:18:51;;;;;;;5.93;4.50;;;;;;;9.85;84.46;96618.72;2047461;28;20043;-62
2022/05/26 04:19:52;;;;;;;8.93;4.70;;;;;;;9.94;83.68;96616.66;2063327;28;20050;-62
2022/05/26 04:21:05;;;;;;;6.75;4.30;;;;;;;9.86;83.96;96621.28;2043371;29;20043;-62
2022/05/26 04:22:15;;;;;;;8.57;4.10;;;;;;;9.92;84.10;96626.25;2044469;28;20449;-62
2022/05/26 04:23:16;;;;;;;6.95;4.05;;;;;;;9.96;83.27;96623.53;2040115;29;20542;-62
2022/05/26 04:24:17;;;;;;;7.45;3.97;;;;;;;9.96;83.62;96636.50;2048966;28;20047;-61
2022/05/26 04:25:20;;;;;;;7.00;3.90;;;;;;;10.10;82.87;96621.28;2055274;28;20480;-61
2022/05/26 04:26:21;;;;;;;5.00;3.80;;;;;;;10.06;82.87;96619.72;2055819;28;20042;-60
2022/05/26 04:27:24;;;;;;;6.95;3.80;;;;;;;10.05;83.11;96621.47;2048216;28;20039;-59
2022/05/26 04:28:25;;;;;;;6.85;3.70;;;;;;;10.08;83.29;96621.38;2048385;28;20114;-58
2022/05/26 04:29:27;;;;;;;5.70;4.07;;;;;;;10.09;83.35;96622.22;2055853;28;20074;-61
2022/05/26 04:30:28;;;;;;;7.95;4.63;;;;;;;10.17;82.75;96622.78;2057800;28;20209;-61
2022/05/26 04:31:29;;;;;;;6.43;4.15;;;;;;;10.10;83.12;96622.16;2048070;29;20051;-60
2022/05/26 04:32:30;;;;;;;6.40;3.97;;;;;;;10.16;83.54;96621.94;2048068;29;20059;-63
2022/05/26 04:33:32;;;;;;;7.10;4.40;;;;;;;10.18;82.61;96627.06;2048071;28;20051;-62
2022/05/26 04:34:33;;;;;;;8.68;4.13;;;;;;;10.24;83.27;96626.03;2048229;28;20438;-60
2022/05/26 04:35:34;;;;;;;6.38;3.60;;;;;;;10.27;83.22;96628.50;2059359;28;20408;-62
2022/05/26 04:36:36;;;;;;;5.75;3.90;;;;;;;10.30;83.23;96631.84;2047554;28;20058;-60
2022/05/26 04:37:37;;;;;;;6.75;4.55;;;;;;;10.35;83.00;96629.09;2048927;28;20058;-59
2022/05/26 04:38:39;;;;;;;5.30;4.00;;;;;;;10.40;82.96;96627.19;2049356;28;20102;-61
2022/05/26 04:39:40;;;;;;;6.53;3.78;;;;;;;10.41;83.53;96634.06;2049226;28;20054;-59
2022/05/26 04:40:43;;;;;;;5.10;3.88;;;;;;;10.47;83.43;96639.03;2057649;28;20062;-61
2022/05/26 04:41:45;;;;;;;6.45;3.97;;;;;;;10.45;83.31;96632.19;2065455;28;20050;-61
2022/05/26 04:42:46;;;;;;;5.50;3.65;;;;;;;10.46;83.33;96637.34;2065486;28;20065;-61
2022/05/26 04:43:47;;;;;;;6.28;3.72;;;;;;;10.53;82.99;96636.22;2057155;28;20054;-62
2022/05/26 04:44:49;;;;;;;7.15;3.78;;;;;;;10.57;82.66;96640.38;2057012;28;20055;-61
2022/05/26 04:45:50;;;;;;;4.68;3.80;;;;;;;10.55;82.89;96639.59;2056820;28;20167;-62
2022/05/26 04:46:51;;;;;;;5.53;3.75;;;;;;;10.60;82.40;96642.88;2048913;29;20055;-63
2022/05/26 04:47:52;;;;;;;5.93;4.10;;;;;;;10.62;82.28;96649.78;2057096;28;20477;-62
2022/05/26 04:48:53;;;;;;;5.93;3.60;;;;;;;10.66;82.42;96653.94;2049163;28;20090;-62
2022/05/26 04:49:55;;;;;;;6.18;3.63;;;;;;;10.80;81.78;96644.75;2041846;29;20066;-62
2022/05/26 04:50:56;;;;;;;7.43;4.00;;;;;;;10.76;81.69;96650.94;2049357;29;20525;-62
2022/05/26 04:51:57;;;;;;;6.25;3.95;;;;;;;10.89;81.71;96653.09;2053542;28;20062;-61
2022/05/26 04:52:59;;;;;;;5.30;3.38;;;;;;;10.97;80.58;96654.47;2048970;29;20047;-61
2022/05/26 04:54:01;;;;;;;5.57;3.10;;;;;;;11.08;80.65;96648.88;2033822;29;20059;-63
2022/05/26 04:55:04;;;;;;;4.85;3.13;;;;;;;11.21;79.76;96652.69;2041593;28;20052;-62
2022/05/26 04:56:05;;;;;;;4.95;2.88;;;;;;;11.19;79.30;96654.50;2064665;28;20050;-62
2022/05/26 04:57:06;;;;;;;4.82;3.22;;;;;;;11.19;80.39;96651.06;2063509;28;20030;-62
2022/05/26 04:58:07;;;;;;;6.68;3.20;;;;;;;11.27;79.77;96652.44;2066411;28;20058;-61
2022/05/26 04:59:08;;;;;;;8.75;3.20;;;;;;;11.32;80.49;96654.03;2049112;29;20047;-61
2022/05/26 05:00:12;;;;;;;4.30;2.90;;;;;;;11.30;79.65;96650.63;2041459;28;20058;-62
2022/05/26 05:01:14;;;;;;;5.95;2.80;;;;;;;11.26;78.81;96655.94;2056755;28;20433;-61
2022/05/26 05:02:16;;;;;;;6.95;2.67;;;;;;;11.27;78.95;96654.19;2065367;28;20050;-62
2022/05/26 05:03:17;;;;;;;3.55;2.70;;;;;;;11.29;78.77;96655.00;2057002;28;20590;-61
2022/05/26 05:04:22;;;;;;;6.03;2.30;;;;;;;11.38;78.57;96651.16;2049197;29;20051;-60
2022/05/26 05:05:23;;;;;;;4.07;2.65;;;;;;;11.35;79.31;96654.72;2057085;28;20119;-60
2022/05/26 05:06:24;;;;;;;6.55;2.28;;;;;;;11.37;78.40;96663.31;2046842;29;20098;-62
2022/05/26 05:07:26;;;;;;;3.53;2.70;;;;;;;11.36;78.85;96656.44;2041162;28;20062;-61
2022/05/26 05:08:27;;;;;;;8.18;2.50;;;;;;;11.34;78.72;96649.63;2049752;28;20058;-61
2022/05/26 05:09:28;;;;;;;5.07;2.40;;;;;;;11.39;78.59;96655.47;2057011;28;20054;-61
2022/05/26 05:10:29;;;;;;;3.65;2.15;;;;;;;11.49;77.75;96664.56;2049537;29;20058;-61
2022/05/26 05:11:31;;;;;;;5.50;2.17;;;;;;;11.53;77.93;96658.38;2049114;29;20049;-61
2022/05/26 05:12:32;;;;;;;4.25;2.30;;;;;;;11.53;77.89;96660.13;2057424;28;20051;-62
2022/05/26 05:13:33;;;;;;;4.68;2.13;;;;;;;11.77;76.74;96660.88;2049051;29;20058;-61
2022/05/26 05:14:38;;;;;;;3.38;2.30;;;;;;;11.74;76.39;96661.00;2049427;28;20536;-61
2022/05/26 05:15:44;;;;;;;3.03;2.00;;;;;;;11.90;77.04;96667.28;2049661;28;20062;-62
2022/05/26 05:16:45;;;;;;;4.80;2.20;;;;;;;11.88;76.54;96662.16;2042878;28;20063;-60
2022/05/26 05:17:47;;;;;;;4.65;2.05;;;;;;;11.85;76.26;96675.25;2049300;28;20180;-61